createdAt,value
2019-05-26T00:00:36.825Z,4.00
2019-05-26T00:01:36.840Z,4.00
2019-05-26T00:02:36.851Z,4.00
2019-05-26T00:03:36.872Z,4.00
2019-05-26T00:04:36.891Z,4.00
2019-05-26T00:05:36.909Z,0.00
2019-05-26T00:06:36.950Z,4.00
2019-05-26T00:07:36.954Z,0.00
2019-05-26T00:08:36.965Z,0.00
2019-05-26T00:09:36.991Z,0.00
2019-05-26T00:10:37.012Z,0.00
2019-05-26T00:11:37.030Z,4.00
2019-05-26T00:12:37.041Z,4.00
2019-05-26T00:13:37.064Z,4.00
2019-05-26T00:14:37.082Z,0.00
2019-05-26T00:15:37.103Z,4.00
2019-05-26T00:16:37.119Z,4.00
2019-05-26T00:17:37.139Z,4.00
2019-05-26T00:18:37.157Z,0.00
2019-05-26T00:19:37.176Z,4.00
2019-05-26T00:20:37.200Z,4.00
2019-05-26T00:21:37.220Z,4.00
2019-05-26T00:22:37.236Z,4.00
2019-05-26T00:23:37.310Z,0.00
2019-05-26T00:24:37.275Z,4.00
2019-05-26T00:25:37.294Z,4.00
2019-05-26T00:26:37.319Z,4.00
2019-05-26T00:27:37.329Z,4.00
2019-05-26T00:28:37.351Z,4.00
2019-05-26T00:29:37.367Z,4.00
2019-05-26T00:30:37.400Z,4.00
2019-05-26T00:31:37.405Z,0.00
2019-05-26T00:32:37.428Z,4.00
2019-05-26T00:33:37.450Z,4.00
2019-05-26T00:34:37.464Z,4.00
2019-05-26T00:35:37.486Z,4.00
2019-05-26T00:36:37.501Z,4.00
2019-05-26T00:37:48.400Z,4.00
2019-05-26T00:38:37.541Z,4.00
2019-05-26T00:39:37.559Z,4.00
2019-05-26T00:40:37.584Z,4.00
2019-05-26T00:41:37.605Z,4.00
2019-05-26T00:42:37.617Z,4.00
2019-05-26T00:43:37.637Z,4.00
2019-05-26T00:44:37.657Z,4.00
2019-05-26T00:45:37.674Z,4.00
2019-05-26T00:46:37.690Z,4.00
2019-05-26T00:47:37.710Z,4.00
2019-05-26T00:48:37.732Z,4.00
2019-05-26T00:49:37.750Z,4.00
2019-05-26T00:50:37.770Z,4.00
2019-05-26T00:51:37.794Z,4.00
2019-05-26T00:52:37.804Z,4.00
2019-05-26T00:53:37.826Z,4.00
2019-05-26T00:54:37.844Z,4.00
2019-05-26T00:55:37.865Z,4.00
2019-05-26T00:56:37.882Z,4.00
2019-05-26T00:57:37.901Z,4.00
2019-05-26T00:58:37.929Z,4.00
2019-05-26T00:59:37.940Z,4.00
2019-05-26T01:00:37.963Z,4.00
2019-05-26T01:01:37.979Z,4.00
2019-05-26T01:02:37.996Z,4.00
2019-05-26T01:03:38.022Z,4.00
2019-05-26T01:04:38.034Z,4.00
2019-05-26T01:05:38.058Z,4.00
2019-05-26T01:06:38.071Z,4.00
2019-05-26T01:07:38.102Z,4.00
2019-05-26T01:08:38.109Z,4.00
2019-05-26T01:09:38.129Z,4.00
2019-05-26T01:10:38.148Z,4.00
2019-05-26T01:11:38.169Z,4.00
2019-05-26T01:12:38.187Z,4.00
2019-05-26T01:13:38.203Z,4.00
2019-05-26T01:14:38.224Z,4.00
2019-05-26T01:15:38.245Z,4.00
2019-05-26T01:16:38.262Z,4.00
2019-05-26T01:17:38.292Z,4.00
2019-05-26T01:18:38.301Z,4.00
2019-05-26T01:19:38.318Z,4.00
2019-05-26T01:20:38.335Z,4.00
2019-05-26T01:21:38.357Z,4.00
2019-05-26T01:22:38.379Z,4.00
2019-05-26T01:23:38.400Z,4.00
2019-05-26T01:24:38.414Z,4.00
2019-05-26T01:25:38.433Z,4.00
2019-05-26T01:26:38.475Z,4.00
2019-05-26T01:27:38.467Z,4.00
2019-05-26T01:28:38.489Z,4.00
2019-05-26T01:29:38.515Z,4.00
2019-05-26T01:30:38.530Z,4.00
2019-05-26T01:31:38.545Z,4.00
2019-05-26T01:32:38.564Z,4.00
2019-05-26T01:33:38.588Z,4.00
2019-05-26T01:34:38.602Z,4.00
2019-05-26T01:35:38.619Z,4.00
2019-05-26T01:36:38.637Z,0.00
2019-05-26T01:37:38.663Z,4.00
2019-05-26T01:38:38.675Z,4.00
2019-05-26T01:39:38.698Z,4.00
2019-05-26T01:40:38.716Z,4.00
2019-05-26T01:41:38.733Z,4.00
2019-05-26T01:42:38.751Z,4.00
2019-05-26T01:43:38.772Z,4.00
2019-05-26T01:44:38.788Z,4.00
2019-05-26T01:45:38.809Z,4.00
2019-05-26T01:46:38.826Z,4.00
2019-05-26T01:47:38.846Z,4.00
2019-05-26T01:48:38.882Z,4.00
2019-05-26T01:49:38.886Z,4.00
2019-05-26T01:50:38.904Z,4.00
2019-05-26T01:51:38.922Z,4.00
2019-05-26T01:52:38.944Z,4.00
2019-05-26T01:53:38.958Z,4.00
2019-05-26T01:54:40.889Z,4.00
2019-05-26T01:55:38.998Z,4.00
2019-05-26T01:56:39.014Z,4.00
2019-05-26T01:57:39.036Z,4.00
2019-05-26T01:58:39.064Z,4.00
2019-05-26T01:59:39.077Z,4.00
2019-05-26T02:00:39.092Z,4.00
2019-05-26T02:01:39.160Z,4.00
2019-05-26T02:02:39.127Z,4.00
2019-05-26T02:03:39.148Z,4.00
2019-05-26T02:04:39.165Z,4.00
2019-05-26T02:05:39.185Z,4.00
2019-05-26T02:06:39.207Z,4.00
2019-05-26T02:07:39.226Z,4.00
2019-05-26T02:08:39.970Z,4.00
2019-05-26T02:09:39.259Z,4.00
2019-05-26T02:10:39.281Z,4.00
2019-05-26T02:11:39.294Z,4.00
2019-05-26T02:12:39.315Z,4.00
2019-05-26T02:13:39.335Z,4.00
2019-05-26T02:14:39.352Z,4.00
2019-05-26T02:15:39.380Z,4.00
2019-05-26T02:16:39.391Z,4.00
2019-05-26T02:17:39.411Z,4.00
2019-05-26T02:18:39.431Z,4.00
2019-05-26T02:19:39.463Z,4.00
2019-05-26T02:20:39.466Z,4.00
2019-05-26T02:21:39.485Z,4.00
2019-05-26T02:22:39.502Z,4.00
2019-05-26T02:23:39.524Z,4.00
2019-05-26T02:24:39.550Z,4.00
2019-05-26T02:25:39.570Z,4.00
2019-05-26T02:26:39.587Z,4.00
2019-05-26T02:27:39.603Z,4.00
2019-05-26T02:28:39.624Z,4.00
2019-05-26T02:29:39.673Z,4.00
2019-05-26T02:30:39.686Z,4.00
2019-05-26T02:31:39.676Z,4.00
2019-05-26T02:32:39.712Z,4.00
2019-05-26T02:33:39.721Z,4.00
2019-05-26T02:34:39.741Z,4.00
2019-05-26T02:35:39.760Z,4.00
2019-05-26T02:36:39.767Z,4.00
2019-05-26T02:37:39.788Z,4.00
2019-05-26T02:38:59.850Z,4.00
2019-05-26T02:39:39.830Z,4.00
2019-05-26T02:40:39.844Z,8.00
2019-05-26T02:41:39.866Z,8.00
2019-05-26T02:42:39.895Z,4.00
2019-05-26T02:43:39.905Z,4.00
2019-05-26T02:44:39.918Z,4.00
2019-05-26T02:45:39.940Z,4.00
2019-05-26T02:46:39.956Z,4.00
2019-05-26T02:47:39.970Z,4.00
2019-05-26T02:48:40.002Z,4.00
2019-05-26T02:49:40.025Z,8.00
2019-05-26T02:50:40.035Z,8.00
2019-05-26T02:51:40.050Z,4.00
2019-05-26T02:52:40.072Z,4.00
2019-05-26T02:53:40.092Z,8.00
2019-05-26T02:54:40.104Z,8.00
2019-05-26T02:55:40.123Z,12.00
2019-05-26T02:56:40.138Z,8.00
2019-05-26T02:57:40.158Z,12.00
2019-05-26T02:58:40.176Z,12.00
2019-05-26T02:59:40.209Z,12.00
2019-05-26T03:00:40.258Z,12.00
2019-05-26T03:01:58.386Z,12.00
2019-05-26T03:02:40.257Z,16.00
2019-05-26T03:03:40.269Z,16.00
2019-05-26T03:04:40.289Z,16.00
2019-05-26T03:05:40.312Z,20.00
2019-05-26T03:06:40.335Z,20.00
2019-05-26T03:07:40.350Z,24.00
2019-05-26T03:08:40.362Z,24.00
2019-05-26T03:09:40.381Z,28.00
2019-05-26T03:10:40.400Z,32.00
2019-05-26T03:11:40.425Z,36.00
2019-05-26T03:12:40.438Z,40.00
2019-05-26T03:13:40.452Z,40.00
2019-05-26T03:14:40.474Z,44.00
2019-05-26T03:15:40.498Z,48.00
2019-05-26T03:16:40.519Z,56.00
2019-05-26T03:18:32.948Z,60.00
2019-05-26T03:18:40.546Z,64.00
2019-05-26T03:19:40.572Z,68.00
2019-05-26T03:20:40.591Z,76.00
2019-05-26T03:21:40.604Z,80.00
2019-05-26T03:22:40.620Z,88.00
2019-05-26T03:23:40.639Z,92.00
2019-05-26T03:24:40.657Z,100.00
2019-05-26T03:25:40.675Z,112.00
2019-05-26T03:26:40.693Z,120.00
2019-05-26T03:27:40.711Z,132.00
2019-05-26T03:28:40.729Z,144.00
2019-05-26T03:29:40.752Z,164.00
2019-05-26T03:30:40.782Z,180.00
2019-05-26T03:31:40.788Z,196.00
2019-05-26T03:32:40.832Z,220.00
2019-05-26T03:33:40.822Z,240.00
2019-05-26T03:34:40.853Z,260.00
2019-05-26T03:35:40.873Z,284.00
2019-05-26T03:36:40.882Z,304.00
2019-05-26T03:37:40.905Z,320.00
2019-05-26T03:38:40.911Z,344.00
2019-05-26T03:39:45.177Z,360.00
2019-05-26T03:40:40.958Z,384.00
2019-05-26T03:41:40.976Z,404.00
2019-05-26T03:42:40.992Z,428.00
2019-05-26T03:43:41.003Z,448.00
2019-05-26T03:44:41.021Z,468.00
2019-05-26T03:45:41.047Z,492.00
2019-05-26T03:46:41.064Z,512.00
2019-05-26T03:47:41.077Z,536.00
2019-05-26T03:48:41.097Z,560.00
2019-05-26T03:49:41.113Z,584.00
2019-05-26T03:50:41.136Z,604.00
2019-05-26T03:51:41.166Z,628.00
2019-05-26T03:52:41.177Z,648.00
2019-05-26T03:53:41.189Z,668.00
2019-05-26T03:54:41.340Z,696.00
2019-05-26T03:55:41.222Z,716.00
2019-05-26T03:56:41.313Z,740.00
2019-05-26T03:57:41.259Z,760.00
2019-05-26T03:58:41.284Z,784.00
2019-05-26T03:59:41.304Z,804.00
2019-05-26T04:00:41.315Z,828.00
2019-05-26T04:01:41.331Z,852.00
2019-05-26T04:02:41.352Z,876.00
2019-05-26T04:03:41.374Z,904.00
2019-05-26T04:04:41.390Z,924.00
2019-05-26T04:05:41.409Z,944.00
2019-05-26T04:06:41.426Z,968.00
2019-05-26T04:07:41.441Z,988.00
2019-05-26T04:08:41.467Z,1012.00
2019-05-26T04:09:41.485Z,1036.00
2019-05-26T04:10:41.497Z,1060.00
2019-05-26T04:11:41.520Z,1076.00
2019-05-26T04:12:41.535Z,1096.00
2019-05-26T04:13:41.551Z,1108.00
2019-05-26T04:14:41.569Z,1128.00
2019-05-26T04:15:41.587Z,1140.00
2019-05-26T04:16:41.606Z,1156.00
2019-05-26T04:17:41.633Z,1172.00
2019-05-26T04:18:41.648Z,1192.00
2019-05-26T04:19:41.661Z,1216.00
2019-05-26T04:20:45.730Z,1240.00
2019-05-26T04:21:41.700Z,1260.00
2019-05-26T04:22:41.720Z,1284.00
2019-05-26T04:23:41.737Z,1308.00
2019-05-26T04:24:41.752Z,1324.00
2019-05-26T04:25:41.774Z,1340.00
2019-05-26T04:26:41.792Z,1356.00
2019-05-26T04:27:41.812Z,1388.00
2019-05-26T04:28:41.829Z,1424.00
2019-05-26T04:29:41.847Z,1460.00
2019-05-26T04:30:41.874Z,1500.00
2019-05-26T04:31:41.888Z,1552.00
2019-05-26T04:32:41.900Z,1596.00
2019-05-26T04:33:41.927Z,1648.00
2019-05-26T04:34:41.938Z,1692.00
2019-05-26T04:35:41.961Z,1740.00
2019-05-26T04:36:41.974Z,1784.00
2019-05-26T04:37:41.997Z,1828.00
2019-05-26T04:38:42.011Z,1880.00
2019-05-26T04:39:42.032Z,1932.00
2019-05-26T04:40:42.050Z,1996.00
2019-05-26T04:41:42.068Z,2060.00
2019-05-26T04:42:42.094Z,2132.00
2019-05-26T04:43:42.110Z,2208.00
2019-05-26T04:44:42.124Z,2280.00
2019-05-26T04:45:42.163Z,2348.00
2019-05-26T04:46:42.167Z,2416.00
2019-05-26T04:47:42.186Z,2480.00
2019-05-26T04:48:42.215Z,2544.00
2019-05-26T04:49:42.229Z,2592.00
2019-05-26T04:50:42.240Z,2632.00
2019-05-26T04:51:42.255Z,2664.00
2019-05-26T04:52:42.269Z,2704.00
2019-05-26T04:53:42.296Z,2732.00
2019-05-26T04:54:42.311Z,2760.00
2019-05-26T04:55:42.338Z,2800.00
2019-05-26T04:56:42.359Z,2848.00
2019-05-26T04:57:42.375Z,2912.00
2019-05-26T04:58:42.429Z,2980.00
2019-05-26T04:59:42.401Z,3124.00
2019-05-26T05:00:42.423Z,3200.00
2019-05-26T05:01:42.438Z,3264.00
2019-05-26T05:02:42.459Z,3276.00
2019-05-26T05:03:42.477Z,3332.00
2019-05-26T05:05:15.711Z,3412.00
2019-05-26T05:05:42.514Z,3504.00
2019-05-26T05:06:42.532Z,3572.00
2019-05-26T05:07:42.552Z,3544.00
2019-05-26T05:08:42.570Z,3464.00
2019-05-26T05:09:42.594Z,3460.00
2019-05-26T05:10:43.079Z,3548.00
2019-05-26T05:11:42.627Z,3564.00
2019-05-26T05:12:42.649Z,3576.00
2019-05-26T05:13:42.665Z,3616.00
2019-05-26T05:14:42.689Z,3680.00
2019-05-26T05:15:42.705Z,3760.00
2019-05-26T05:16:42.723Z,3828.00
2019-05-26T05:17:42.742Z,3944.00
2019-05-26T05:18:42.761Z,4092.00
2019-05-26T05:19:42.782Z,4292.00
2019-05-26T05:20:42.801Z,4412.00
2019-05-26T05:21:42.820Z,4504.00
2019-05-26T05:22:42.835Z,4528.00
2019-05-26T05:23:42.857Z,4460.00
2019-05-26T05:24:42.874Z,4404.00
2019-05-26T05:25:42.895Z,4456.00
2019-05-26T05:26:42.915Z,4436.00
2019-05-26T05:27:42.935Z,4388.00
2019-05-26T05:28:42.951Z,4448.00
2019-05-26T05:29:42.972Z,4452.00
2019-05-26T05:30:42.992Z,4448.00
2019-05-26T05:31:43.012Z,4448.00
2019-05-26T05:32:43.031Z,4512.00
2019-05-26T05:33:43.049Z,4556.00
2019-05-26T05:34:43.070Z,4628.00
2019-05-26T05:35:43.087Z,4672.00
2019-05-26T05:36:43.108Z,4744.00
2019-05-26T05:37:43.128Z,4776.00
2019-05-26T05:38:43.147Z,4732.00
2019-05-26T05:39:43.164Z,4612.00
2019-05-26T05:40:58.267Z,4564.00
2019-05-26T05:41:43.203Z,4492.00
2019-05-26T05:42:43.226Z,4496.00
2019-05-26T05:43:43.244Z,4612.00
2019-05-26T05:44:43.276Z,4776.00
2019-05-26T05:45:43.284Z,4760.00
2019-05-26T05:46:43.369Z,4552.00
2019-05-26T05:47:43.322Z,4324.00
2019-05-26T05:48:43.344Z,4232.00
2019-05-26T05:49:43.360Z,4256.00
2019-05-26T05:50:43.389Z,4260.00
2019-05-26T05:51:43.400Z,4204.00
2019-05-26T05:52:43.428Z,4200.00
2019-05-26T05:53:43.444Z,4200.00
2019-05-26T05:54:43.461Z,4220.00
2019-05-26T05:55:43.479Z,4232.00
2019-05-26T05:56:43.502Z,4276.00
2019-05-26T05:57:43.520Z,4344.00
2019-05-26T05:58:43.542Z,4432.00
2019-05-26T05:59:43.562Z,4508.00
2019-05-26T06:00:43.583Z,4548.00
2019-05-26T06:01:43.600Z,4536.00
2019-05-26T06:02:43.629Z,4580.00
2019-05-26T06:03:43.647Z,4620.00
2019-05-26T06:04:43.660Z,4720.00
2019-05-26T06:05:43.690Z,4788.00
2019-05-26T06:06:43.701Z,4968.00
2019-05-26T06:07:43.723Z,4996.00
2019-05-26T06:08:43.740Z,4948.00
2019-05-26T06:09:43.760Z,4948.00
2019-05-26T06:10:43.781Z,4988.00
2019-05-26T06:11:43.800Z,5064.00
2019-05-26T06:12:43.824Z,5060.00
2019-05-26T06:13:43.848Z,5028.00
2019-05-26T06:14:43.860Z,5016.00
2019-05-26T06:15:43.881Z,4964.00
2019-05-26T06:16:43.910Z,4884.00
2019-05-26T06:17:43.921Z,4796.00
2019-05-26T06:18:43.941Z,4764.00
2019-05-26T06:19:43.961Z,4756.00
2019-05-26T06:20:43.991Z,4748.00
2019-05-26T06:21:44.003Z,4748.00
2019-05-26T06:22:44.025Z,4732.00
2019-05-26T06:23:44.053Z,4716.00
2019-05-26T06:24:44.064Z,4736.00
2019-05-26T06:25:44.090Z,4764.00
2019-05-26T06:26:44.107Z,4780.00
2019-05-26T06:27:44.128Z,4796.00
2019-05-26T06:28:44.145Z,4828.00
2019-05-26T06:29:57.893Z,4884.00
2019-05-26T06:30:44.189Z,4924.00
2019-05-26T06:31:44.402Z,4976.00
2019-05-26T06:32:44.234Z,5032.00
2019-05-26T06:33:44.252Z,5108.00
2019-05-26T06:34:44.270Z,5200.00
2019-05-26T06:35:44.288Z,5332.00
2019-05-26T06:36:44.311Z,5464.00
2019-05-26T06:37:44.338Z,5504.00
2019-05-26T06:38:44.351Z,5580.00
2019-05-26T06:39:44.371Z,5716.00
2019-05-26T06:40:44.392Z,5684.00
2019-05-26T06:41:44.412Z,5740.00
2019-05-26T06:42:44.437Z,5768.00
2019-05-26T06:43:44.461Z,5808.00
2019-05-26T06:44:53.463Z,5820.00
2019-05-26T06:45:44.495Z,5832.00
2019-05-26T06:46:44.516Z,5776.00
2019-05-26T06:47:44.536Z,5712.00
2019-05-26T06:48:44.559Z,5644.00
2019-05-26T06:49:44.583Z,5580.00
2019-05-26T06:50:44.603Z,5496.00
2019-05-26T06:51:44.617Z,5464.00
2019-05-26T06:52:44.638Z,5416.00
2019-05-26T06:53:44.659Z,5352.00
2019-05-26T06:54:44.677Z,5316.00
2019-05-26T06:55:44.705Z,5276.00
2019-05-26T06:56:44.722Z,5260.00
2019-05-26T06:57:44.750Z,5276.00
2019-05-26T06:58:44.763Z,5276.00
2019-05-26T06:59:44.788Z,5156.00
2019-05-26T07:00:44.809Z,4996.00
2019-05-26T07:01:44.823Z,5020.00
2019-05-26T07:02:44.846Z,4656.00
2019-05-26T07:03:44.872Z,4328.00
2019-05-26T07:04:44.891Z,4124.00
2019-05-26T07:05:44.908Z,3996.00
2019-05-26T07:06:44.928Z,3688.00
2019-05-26T07:07:44.948Z,3568.00
2019-05-26T07:08:44.973Z,3356.00
2019-05-26T07:09:44.992Z,3276.00
2019-05-26T07:10:45.013Z,3384.00
2019-05-26T07:11:55.761Z,3440.00
2019-05-26T07:12:45.057Z,3396.00
2019-05-26T07:13:45.083Z,3520.00
2019-05-26T07:14:45.101Z,3356.00
2019-05-26T07:15:45.127Z,3400.00
2019-05-26T07:16:45.136Z,3524.00
2019-05-26T07:17:45.157Z,3960.00
2019-05-26T07:18:45.179Z,4576.00
2019-05-26T07:19:45.198Z,5512.00
2019-05-26T07:20:45.219Z,6320.00
2019-05-26T07:21:45.240Z,6756.00
2019-05-26T07:22:45.259Z,6076.00
2019-05-26T07:23:45.289Z,6800.00
2019-05-26T07:24:45.304Z,7980.00
2019-05-26T07:25:45.329Z,8204.00
2019-05-26T07:26:45.345Z,7080.00
2019-05-26T07:27:45.374Z,6792.00
2019-05-26T07:28:45.391Z,6552.00
2019-05-26T07:29:45.407Z,6656.00
2019-05-26T07:30:45.430Z,6880.00
2019-05-26T07:31:45.453Z,7008.00
2019-05-26T07:32:45.473Z,6992.00
2019-05-26T07:33:45.495Z,6976.00
2019-05-26T07:34:45.514Z,7180.00
2019-05-26T07:35:45.537Z,7444.00
2019-05-26T07:36:45.559Z,7540.00
2019-05-26T07:37:45.588Z,7856.00
2019-05-26T07:38:45.601Z,7840.00
2019-05-26T07:39:45.624Z,7944.00
2019-05-26T07:40:45.646Z,8084.00
2019-05-26T07:41:45.666Z,7936.00
2019-05-26T07:42:45.692Z,7688.00
2019-05-26T07:43:45.707Z,7348.00
2019-05-26T07:44:45.738Z,6852.00
2019-05-26T07:45:45.754Z,6444.00
2019-05-26T07:46:45.772Z,6320.00
2019-05-26T07:47:45.795Z,6212.00
2019-05-26T07:48:45.818Z,6052.00
2019-05-26T07:49:45.845Z,5724.00
2019-05-26T07:50:45.860Z,5404.00
2019-05-26T07:51:45.888Z,5304.00
2019-05-26T07:52:45.904Z,5356.00
2019-05-26T07:53:45.930Z,5336.00
2019-05-26T07:54:45.947Z,5180.00
2019-05-26T07:55:45.971Z,5028.00
2019-05-26T07:56:45.994Z,4908.00
2019-05-26T07:57:46.018Z,4828.00
2019-05-26T07:58:46.036Z,4736.00
2019-05-26T07:59:46.063Z,4712.00
2019-05-26T08:00:46.081Z,4848.00
2019-05-26T08:01:46.118Z,4956.00
2019-05-26T08:02:46.124Z,4976.00
2019-05-26T08:03:46.153Z,4964.00
2019-05-26T08:04:46.168Z,4940.00
2019-05-26T08:05:46.188Z,4952.00
2019-05-26T08:06:46.209Z,4972.00
2019-05-26T08:07:46.234Z,5008.00
2019-05-26T08:08:46.255Z,4948.00
2019-05-26T08:09:46.286Z,4812.00
2019-05-26T08:10:46.298Z,4648.00
2019-05-26T08:11:46.418Z,4536.00
2019-05-26T08:12:46.345Z,4472.00
2019-05-26T08:13:46.365Z,4516.00
2019-05-26T08:14:46.385Z,4596.00
2019-05-26T08:15:46.407Z,4664.00
2019-05-26T08:16:46.429Z,4708.00
2019-05-26T08:17:46.449Z,4768.00
2019-05-26T08:18:46.478Z,4888.00
2019-05-26T08:19:46.494Z,4944.00
2019-05-26T08:20:46.515Z,5000.00
2019-05-26T08:21:46.541Z,5128.00
2019-05-26T08:22:46.561Z,5252.00
2019-05-26T08:23:46.579Z,5456.00
2019-05-26T08:24:46.602Z,5584.00
2019-05-26T08:25:46.670Z,5692.00
2019-05-26T08:26:46.653Z,5880.00
2019-05-26T08:27:46.666Z,6076.00
2019-05-26T08:28:46.694Z,6160.00
2019-05-26T08:29:46.713Z,5992.00
2019-05-26T08:30:46.740Z,5604.00
2019-05-26T08:31:46.755Z,5220.00
2019-05-26T08:32:46.776Z,5020.00
2019-05-26T08:33:46.800Z,5072.00
2019-05-26T08:34:46.819Z,5316.00
2019-05-26T08:35:46.850Z,5464.00
2019-05-26T08:36:46.866Z,5512.00
2019-05-26T08:37:46.888Z,5416.00
2019-05-26T08:38:46.907Z,5432.00
2019-05-26T08:39:48.548Z,5588.00
2019-05-26T08:40:46.961Z,5660.00
2019-05-26T08:41:47.013Z,5544.00
2019-05-26T08:42:46.996Z,5332.00
2019-05-26T08:43:47.025Z,5100.00
2019-05-26T08:44:47.049Z,4880.00
2019-05-26T08:45:47.062Z,4732.00
2019-05-26T08:46:47.085Z,4740.00
2019-05-26T08:47:47.110Z,4928.00
2019-05-26T08:48:47.127Z,5224.00
2019-05-26T08:49:47.154Z,5468.00
2019-05-26T08:50:47.177Z,5568.00
2019-05-26T08:51:47.193Z,5532.00
2019-05-26T08:52:47.216Z,5324.00
2019-05-26T08:53:47.240Z,4880.00
2019-05-26T08:54:47.267Z,4380.00
2019-05-26T08:55:47.283Z,3944.00
2019-05-26T08:56:47.306Z,3664.00
2019-05-26T08:57:47.336Z,3568.00
2019-05-26T08:58:47.351Z,3636.00
2019-05-26T08:59:47.373Z,3872.00
2019-05-26T09:00:47.409Z,4208.00
2019-05-26T09:01:47.425Z,4680.00
2019-05-26T09:02:47.448Z,5164.00
2019-05-26T09:03:47.464Z,5640.00
2019-05-26T09:04:47.481Z,5924.00
2019-05-26T09:05:47.504Z,5940.00
2019-05-26T09:06:47.531Z,5968.00
2019-05-26T09:07:47.548Z,6136.00
2019-05-26T09:08:47.572Z,6216.00
2019-05-26T09:09:47.591Z,6156.00
2019-05-26T09:10:47.612Z,5972.00
2019-05-26T09:11:47.634Z,5792.00
2019-05-26T09:13:00.123Z,5684.00
2019-05-26T09:13:47.679Z,5808.00
2019-05-26T09:14:47.701Z,6048.00
2019-05-26T09:15:47.726Z,6364.00
2019-05-26T09:16:47.748Z,6644.00
2019-05-26T09:17:47.770Z,7016.00
2019-05-26T09:18:47.790Z,7348.00
2019-05-26T09:19:47.813Z,7644.00
2019-05-26T09:20:47.834Z,7884.00
2019-05-26T09:21:47.857Z,8308.00
2019-05-26T09:22:47.882Z,8588.00
2019-05-26T09:23:47.919Z,8692.00
2019-05-26T09:24:47.928Z,8660.00
2019-05-26T09:25:47.950Z,8708.00
2019-05-26T09:26:47.970Z,8832.00
2019-05-26T09:27:48.002Z,8928.00
2019-05-26T09:28:48.014Z,8988.00
2019-05-26T09:29:48.038Z,9252.00
2019-05-26T09:30:48.065Z,9376.00
2019-05-26T09:31:48.082Z,9476.00
2019-05-26T09:32:48.111Z,9480.00
2019-05-26T09:33:48.128Z,9500.00
2019-05-26T09:34:48.152Z,9564.00
2019-05-26T09:35:48.174Z,9576.00
2019-05-26T09:36:48.206Z,9504.00
2019-05-26T09:37:48.222Z,9476.00
2019-05-26T09:38:48.244Z,9460.00
2019-05-26T09:39:48.264Z,9528.00
2019-05-26T09:40:48.291Z,9600.00
2019-05-26T09:41:48.314Z,9704.00
2019-05-26T09:42:48.342Z,9600.00
2019-05-26T09:43:48.356Z,9420.00
2019-05-26T09:44:48.384Z,9352.00
2019-05-26T09:45:48.404Z,9264.00
2019-05-26T09:46:48.426Z,9232.00
2019-05-26T09:47:48.459Z,9328.00
2019-05-26T09:48:48.475Z,9356.00
2019-05-26T09:49:48.502Z,9328.00
2019-05-26T09:50:48.521Z,9364.00
2019-05-26T09:51:48.547Z,9464.00
2019-05-26T09:52:48.572Z,9320.00
2019-05-26T09:54:00.851Z,8924.00
2019-05-26T09:54:48.615Z,8504.00
2019-05-26T09:55:48.642Z,8088.00
2019-05-26T09:56:48.662Z,7784.00
2019-05-26T09:57:48.689Z,7736.00
2019-05-26T09:58:48.712Z,8052.00
2019-05-26T09:59:48.734Z,8456.00
2019-05-26T10:00:48.758Z,8920.00
2019-05-26T10:01:48.781Z,9412.00
2019-05-26T10:02:49.013Z,9604.00
2019-05-26T10:03:48.839Z,9600.00
2019-05-26T10:04:48.860Z,9328.00
2019-05-26T10:05:49.180Z,9008.00
2019-05-26T10:06:48.903Z,8948.00
2019-05-26T10:07:48.929Z,8980.00
2019-05-26T10:08:49.000Z,9168.00
2019-05-26T10:09:48.970Z,9368.00
2019-05-26T10:10:48.997Z,9484.00
2019-05-26T10:11:49.019Z,9284.00
2019-05-26T10:12:49.044Z,9276.00
2019-05-26T10:13:49.072Z,9272.00
2019-05-26T10:14:49.094Z,9180.00
2019-05-26T10:15:49.823Z,9240.00
2019-05-26T10:16:49.140Z,9336.00
2019-05-26T10:17:49.171Z,9404.00
2019-05-26T10:18:49.887Z,9400.00
2019-05-26T10:19:49.211Z,9344.00
2019-05-26T10:20:49.237Z,9444.00
2019-05-26T10:21:49.861Z,9568.00
2019-05-26T10:22:49.296Z,9604.00
2019-05-26T10:23:53.065Z,9648.00
2019-05-26T10:24:49.334Z,9620.00
2019-05-26T10:25:49.364Z,9696.00
2019-05-26T10:26:49.384Z,9904.00
2019-05-26T10:27:49.406Z,9964.00
2019-05-26T10:28:49.629Z,10004.00
2019-05-26T10:29:49.462Z,10136.00
2019-05-26T10:30:49.480Z,10220.00
2019-05-26T10:31:49.511Z,10256.00
2019-05-26T10:32:49.678Z,10176.00
2019-05-26T10:33:49.550Z,10004.00
2019-05-26T10:34:49.574Z,9536.00
2019-05-26T10:35:49.610Z,9024.00
2019-05-26T10:36:49.625Z,8556.00
2019-05-26T10:37:49.648Z,8304.00
2019-05-26T10:38:49.670Z,8388.00
2019-05-26T10:39:49.705Z,8704.00
2019-05-26T10:40:49.719Z,9228.00
2019-05-26T10:41:49.750Z,9684.00
2019-05-26T10:42:49.792Z,10020.00
2019-05-26T10:43:49.792Z,10204.00
2019-05-26T10:44:49.822Z,10292.00
2019-05-26T10:45:49.841Z,10424.00
2019-05-26T10:46:49.871Z,10524.00
2019-05-26T10:47:49.891Z,10564.00
2019-05-26T10:48:49.921Z,10564.00
2019-05-26T10:49:49.946Z,10504.00
2019-05-26T10:50:49.964Z,10496.00
2019-05-26T10:51:49.987Z,10632.00
2019-05-26T10:52:50.013Z,10856.00
2019-05-26T10:53:50.045Z,10868.00
2019-05-26T10:54:50.060Z,10884.00
2019-05-26T10:55:50.087Z,10724.00
2019-05-26T10:56:50.110Z,10656.00
2019-05-26T10:57:50.135Z,10520.00
2019-05-26T10:58:50.160Z,10260.00
2019-05-26T10:59:50.185Z,10184.00
2019-05-26T11:00:50.212Z,10016.00
2019-05-26T11:01:50.236Z,9912.00
2019-05-26T11:02:50.260Z,9904.00
2019-05-26T11:03:50.295Z,9868.00
2019-05-26T11:04:50.310Z,9692.00
2019-05-26T11:05:50.341Z,9488.00
2019-05-26T11:06:50.358Z,9512.00
2019-05-26T11:07:50.384Z,9564.00
2019-05-26T11:08:50.412Z,9852.00
2019-05-26T11:09:50.435Z,10124.00
2019-05-26T11:10:50.456Z,10308.00
2019-05-26T11:11:50.489Z,10360.00
2019-05-26T11:12:50.511Z,10300.00
2019-05-26T11:14:02.421Z,10452.00
2019-05-26T11:14:50.559Z,10280.00
2019-05-26T11:15:50.581Z,10192.00
2019-05-26T11:16:51.018Z,10140.00
2019-05-26T11:17:50.636Z,10112.00
2019-05-26T11:18:50.658Z,10076.00
2019-05-26T11:19:50.685Z,9900.00
2019-05-26T11:20:50.710Z,9736.00
2019-05-26T11:21:50.736Z,9644.00
2019-05-26T11:22:50.759Z,9388.00
2019-05-26T11:23:50.788Z,9160.00
2019-05-26T11:24:50.821Z,9000.00
2019-05-26T11:25:50.832Z,9120.00
2019-05-26T11:26:50.860Z,9348.00
2019-05-26T11:27:50.885Z,9776.00
2019-05-26T11:28:50.916Z,10380.00
2019-05-26T11:29:50.937Z,10960.00
2019-05-26T11:30:50.984Z,11348.00
2019-05-26T11:31:50.985Z,11480.00
2019-05-26T11:32:51.014Z,11468.00
2019-05-26T11:33:51.045Z,11404.00
2019-05-26T11:35:51.085Z,11232.00
2019-05-26T11:36:14.069Z,11284.00
2019-05-26T11:36:51.110Z,11288.00
2019-05-26T11:37:51.131Z,11388.00
2019-05-26T11:38:51.170Z,11440.00
2019-05-26T11:39:51.184Z,11360.00
2019-05-26T11:40:51.218Z,11268.00
2019-05-26T11:41:54.830Z,11260.00
2019-05-26T11:42:51.256Z,11516.00
2019-05-26T11:43:51.282Z,11564.00
2019-05-26T11:44:51.309Z,11808.00
2019-05-26T11:45:51.350Z,11708.00
2019-05-26T11:46:51.356Z,11028.00
2019-05-26T11:47:51.387Z,10816.00
2019-05-26T11:48:51.454Z,10056.00
2019-05-26T11:49:51.499Z,9412.00
2019-05-26T11:50:51.672Z,8932.00
2019-05-26T11:51:51.555Z,8704.00
2019-05-26T11:52:51.566Z,8660.00
2019-05-26T11:53:51.545Z,8836.00
2019-05-26T11:54:51.561Z,9212.00
2019-05-26T11:55:51.591Z,9564.00
2019-05-26T11:56:51.613Z,9912.00
2019-05-26T11:57:51.642Z,10052.00
2019-05-26T11:58:51.667Z,10152.00
2019-05-26T11:59:51.684Z,10104.00
2019-05-26T12:00:51.713Z,9928.00
2019-05-26T12:01:51.739Z,9592.00
2019-05-26T12:02:51.763Z,9660.00
2019-05-26T12:03:51.787Z,9884.00
2019-05-26T12:04:51.815Z,10260.00
2019-05-26T12:05:51.837Z,10476.00
2019-05-26T12:06:51.860Z,10568.00
2019-05-26T12:07:51.887Z,10472.00
2019-05-26T12:08:51.920Z,10552.00
2019-05-26T12:09:51.939Z,9736.00
2019-05-26T12:10:51.961Z,9680.00
2019-05-26T12:11:51.988Z,9776.00
2019-05-26T12:12:52.015Z,10344.00
2019-05-26T12:13:52.049Z,11160.00
2019-05-26T12:14:52.061Z,11256.00
2019-05-26T12:15:52.087Z,11592.00
2019-05-26T12:16:52.119Z,11652.00
2019-05-26T12:17:52.140Z,11712.00
2019-05-26T12:18:52.166Z,11520.00
2019-05-26T12:19:52.188Z,11700.00
2019-05-26T12:20:52.214Z,11920.00
2019-05-26T12:21:52.240Z,11888.00
2019-05-26T12:22:52.265Z,11460.00